sensor_id;sensor_type;location;lat;lon;timestamp;P1;durP1;ratioP1;P2;durP2;ratioP2
66575;SDS011;53428;47.686;16.584;2023-08-07T00:03:29;0.05;;;0.05;;
66575;SDS011;53428;47.686;16.584;2023-08-07T00:08:28;0.40;;;0.40;;
66575;SDS011;53428;47.686;16.584;2023-08-07T00:13:29;0.40;;;0.40;;
66575;SDS011;53428;47.686;16.584;2023-08-07T00:18:28;0.30;;;0.30;;
66575;SDS011;53428;47.686;16.584;2023-08-07T00:23:28;0.43;;;0.43;;
66575;SDS011;53428;47.686;16.584;2023-08-07T00:28:27;0.20;;;0.20;;
66575;SDS011;53428;47.686;16.584;2023-08-07T00:33:28;0.40;;;0.40;;
66575;SDS011;53428;47.686;16.584;2023-08-07T00:38:27;0.10;;;0.10;;
66575;SDS011;53428;47.686;16.584;2023-08-07T00:43:27;0.43;;;0.40;;
66575;SDS011;53428;47.686;16.584;2023-08-07T00:48:26;0.40;;;0.25;;
66575;SDS011;53428;47.686;16.584;2023-08-07T00:53:26;0.22;;;0.22;;
66575;SDS011;53428;47.686;16.584;2023-08-07T00:58:25;2.47;;;0.35;;
66575;SDS011;53428;47.686;16.584;2023-08-07T01:03:24;0.43;;;0.30;;
66575;SDS011;53428;47.686;16.584;2023-08-07T01:08:24;0.00;;;0.00;;
66575;SDS011;53428;47.686;16.584;2023-08-07T01:13:24;0.10;;;0.10;;
66575;SDS011;53428;47.686;16.584;2023-08-07T01:18:45;0.47;;;0.28;;
66575;SDS011;53428;47.686;16.584;2023-08-07T01:23:46;0.10;;;0.10;;
66575;SDS011;53428;47.686;16.584;2023-08-07T01:28:47;0.20;;;0.20;;
66575;SDS011;53428;47.686;16.584;2023-08-07T01:34:10;0.60;;;0.32;;
66575;SDS011;53428;47.686;16.584;2023-08-07T01:39:14;4.57;;;0.40;;
66575;SDS011;53428;47.686;16.584;2023-08-07T01:44:14;0.35;;;0.28;;
66575;SDS011;53428;47.686;16.584;2023-08-07T01:49:13;0.30;;;0.30;;
66575;SDS011;53428;47.686;16.584;2023-08-07T01:54:13;0.35;;;0.30;;
66575;SDS011;53428;47.686;16.584;2023-08-07T01:59:12;0.73;;;0.40;;
66575;SDS011;53428;47.686;16.584;2023-08-07T02:04:12;0.38;;;0.38;;
66575;SDS011;53428;47.686;16.584;2023-08-07T02:09:12;2.85;;;0.25;;
66575;SDS011;53428;47.686;16.584;2023-08-07T02:14:11;0.45;;;0.20;;
66575;SDS011;53428;47.686;16.584;2023-08-07T02:19:10;1.98;;;0.32;;
66575;SDS011;53428;47.686;16.584;2023-08-07T02:24:10;0.10;;;0.10;;
66575;SDS011;53428;47.686;16.584;2023-08-07T02:29:09;0.13;;;0.13;;
66575;SDS011;53428;47.686;16.584;2023-08-07T02:34:08;0.35;;;0.35;;
66575;SDS011;53428;47.686;16.584;2023-08-07T02:39:07;0.20;;;0.20;;
66575;SDS011;53428;47.686;16.584;2023-08-07T02:44:07;0.17;;;0.10;;
66575;SDS011;53428;47.686;16.584;2023-08-07T02:49:06;0.28;;;0.28;;
66575;SDS011;53428;47.686;16.584;2023-08-07T02:54:05;0.40;;;0.13;;
66575;SDS011;53428;47.686;16.584;2023-08-07T02:59:04;0.15;;;0.15;;
66575;SDS011;53428;47.686;16.584;2023-08-07T03:04:04;0.30;;;0.30;;
66575;SDS011;53428;47.686;16.584;2023-08-07T03:09:04;0.40;;;0.40;;
66575;SDS011;53428;47.686;16.584;2023-08-07T03:14:03;0.35;;;0.30;;
66575;SDS011;53428;47.686;16.584;2023-08-07T03:19:02;0.45;;;0.45;;
66575;SDS011;53428;47.686;16.584;2023-08-07T03:24:02;1.65;;;0.43;;
66575;SDS011;53428;47.686;16.584;2023-08-07T03:29:01;0.40;;;0.40;;
66575;SDS011;53428;47.686;16.584;2023-08-07T03:34:00;0.63;;;0.45;;
66575;SDS011;53428;47.686;16.584;2023-08-07T03:38:59;0.65;;;0.35;;
66575;SDS011;53428;47.686;16.584;2023-08-07T03:43:59;0.30;;;0.30;;
66575;SDS011;53428;47.686;16.584;2023-08-07T03:48:58;0.38;;;0.30;;
66575;SDS011;53428;47.686;16.584;2023-08-07T03:53:57;0.50;;;0.50;;
66575;SDS011;53428;47.686;16.584;2023-08-07T03:58:57;0.52;;;0.52;;
66575;SDS011;53428;47.686;16.584;2023-08-07T04:03:56;0.95;;;0.40;;
66575;SDS011;53428;47.686;16.584;2023-08-07T04:08:55;2.13;;;0.70;;
66575;SDS011;53428;47.686;16.584;2023-08-07T04:13:54;1.00;;;0.60;;
66575;SDS011;53428;47.686;16.584;2023-08-07T04:18:53;1.30;;;0.47;;
66575;SDS011;53428;47.686;16.584;2023-08-07T04:23:52;2.15;;;0.50;;
66575;SDS011;53428;47.686;16.584;2023-08-07T04:28:52;0.55;;;0.55;;
66575;SDS011;53428;47.686;16.584;2023-08-07T04:33:51;3.45;;;0.70;;
66575;SDS011;53428;47.686;16.584;2023-08-07T04:38:50;0.30;;;0.30;;
66575;SDS011;53428;47.686;16.584;2023-08-07T04:43:50;0.50;;;0.43;;
66575;SDS011;53428;47.686;16.584;2023-08-07T04:48:49;0.80;;;0.30;;
66575;SDS011;53428;47.686;16.584;2023-08-07T04:53:48;0.45;;;0.45;;
66575;SDS011;53428;47.686;16.584;2023-08-07T04:58:49;0.30;;;0.30;;
66575;SDS011;53428;47.686;16.584;2023-08-07T05:03:49;0.77;;;0.50;;
66575;SDS011;53428;47.686;16.584;2023-08-07T05:08:48;0.95;;;0.43;;
66575;SDS011;53428;47.686;16.584;2023-08-07T05:13:47;0.22;;;0.22;;
66575;SDS011;53428;47.686;16.584;2023-08-07T05:18:46;0.13;;;0.13;;
66575;SDS011;53428;47.686;16.584;2023-08-07T05:23:45;0.10;;;0.10;;
66575;SDS011;53428;47.686;16.584;2023-08-07T05:28:46;0.20;;;0.20;;
66575;SDS011;53428;47.686;16.584;2023-08-07T05:33:45;0.80;;;0.38;;
66575;SDS011;53428;47.686;16.584;2023-08-07T05:38:44;2.45;;;0.32;;
66575;SDS011;53428;47.686;16.584;2023-08-07T05:43:45;0.10;;;0.10;;
66575;SDS011;53428;47.686;16.584;2023-08-07T05:48:44;0.38;;;0.38;;
66575;SDS011;53428;47.686;16.584;2023-08-07T05:53:43;0.30;;;0.30;;
66575;SDS011;53428;47.686;16.584;2023-08-07T05:58:45;0.15;;;0.15;;
66575;SDS011;53428;47.686;16.584;2023-08-07T06:03:44;0.95;;;0.38;;
66575;SDS011;53428;47.686;16.584;2023-08-07T06:08:44;1.48;;;1.38;;
66575;SDS011;53428;47.686;16.584;2023-08-07T06:13:43;0.30;;;0.25;;
66575;SDS011;53428;47.686;16.584;2023-08-07T06:18:42;0.20;;;0.20;;
66575;SDS011;53428;47.686;16.584;2023-08-07T06:23:42;0.20;;;0.20;;
66575;SDS011;53428;47.686;16.584;2023-08-07T06:28:41;0.32;;;0.32;;
66575;SDS011;53428;47.686;16.584;2023-08-07T06:33:41;0.05;;;0.05;;
66575;SDS011;53428;47.686;16.584;2023-08-07T06:38:41;2.33;;;0.25;;
66575;SDS011;53428;47.686;16.584;2023-08-07T06:43:40;0.60;;;0.20;;
66575;SDS011;53428;47.686;16.584;2023-08-07T06:48:39;0.17;;;0.17;;
66575;SDS011;53428;47.686;16.584;2023-08-07T06:53:39;0.68;;;0.50;;
66575;SDS011;53428;47.686;16.584;2023-08-07T06:58:38;0.20;;;0.20;;
66575;SDS011;53428;47.686;16.584;2023-08-07T07:03:38;0.38;;;0.35;;
66575;SDS011;53428;47.686;16.584;2023-08-07T07:08:37;2.53;;;0.30;;
66575;SDS011;53428;47.686;16.584;2023-08-07T07:13:36;0.50;;;0.47;;
66575;SDS011;53428;47.686;16.584;2023-08-07T07:18:36;0.15;;;0.15;;
66575;SDS011;53428;47.686;16.584;2023-08-07T07:23:35;0.60;;;0.25;;
66575;SDS011;53428;47.686;16.584;2023-08-07T07:28:35;3.85;;;0.20;;
66575;SDS011;53428;47.686;16.584;2023-08-07T07:33:35;0.00;;;0.00;;
66575;SDS011;53428;47.686;16.584;2023-08-07T07:38:35;0.00;;;0.00;;
66575;SDS011;53428;47.686;16.584;2023-08-07T07:43:34;0.73;;;0.32;;
66575;SDS011;53428;47.686;16.584;2023-08-07T07:48:33;0.57;;;0.30;;
66575;SDS011;53428;47.686;16.584;2023-08-07T07:53:34;0.08;;;0.08;;
66575;SDS011;53428;47.686;16.584;2023-08-07T07:58:34;0.80;;;0.20;;
66575;SDS011;53428;47.686;16.584;2023-08-07T08:03:34;1.17;;;0.45;;
66575;SDS011;53428;47.686;16.584;2023-08-07T08:08:34;0.22;;;0.10;;
66575;SDS011;53428;47.686;16.584;2023-08-07T08:13:33;0.20;;;0.20;;
66575;SDS011;53428;47.686;16.584;2023-08-07T08:18:37;0.05;;;0.05;;
66575;SDS011;53428;47.686;16.584;2023-08-07T08:23:37;0.10;;;0.10;;
66575;SDS011;53428;47.686;16.584;2023-08-07T08:28:36;8.20;;;0.35;;
66575;SDS011;53428;47.686;16.584;2023-08-07T08:33:37;0.30;;;0.30;;
66575;SDS011;53428;47.686;16.584;2023-08-07T08:38:36;0.10;;;0.10;;
66575;SDS011;53428;47.686;16.584;2023-08-07T08:43:36;0.30;;;0.30;;
66575;SDS011;53428;47.686;16.584;2023-08-07T08:48:39;0.20;;;0.20;;
66575;SDS011;53428;47.686;16.584;2023-08-07T08:53:41;0.22;;;0.22;;
66575;SDS011;53428;47.686;16.584;2023-08-07T08:58:40;1.10;;;0.30;;
66575;SDS011;53428;47.686;16.584;2023-08-07T09:03:40;1.65;;;0.17;;
66575;SDS011;53428;47.686;16.584;2023-08-07T09:08:43;0.10;;;0.10;;
66575;SDS011;53428;47.686;16.584;2023-08-07T09:13:42;0.10;;;0.10;;
66575;SDS011;53428;47.686;16.584;2023-08-07T09:18:46;1.85;;;0.30;;
66575;SDS011;53428;47.686;16.584;2023-08-07T09:23:47;0.25;;;0.10;;
66575;SDS011;53428;47.686;16.584;2023-08-07T09:28:46;3.55;;;0.40;;
66575;SDS011;53428;47.686;16.584;2023-08-07T09:33:48;0.20;;;0.20;;
66575;SDS011;53428;47.686;16.584;2023-08-07T09:43:50;0.73;;;0.20;;
66575;SDS011;53428;47.686;16.584;2023-08-07T09:48:49;0.55;;;0.40;;
66575;SDS011;53428;47.686;16.584;2023-08-07T09:53:49;4.05;;;0.43;;
66575;SDS011;53428;47.686;16.584;2023-08-07T09:58:48;0.73;;;0.30;;
66575;SDS011;53428;47.686;16.584;2023-08-07T10:03:48;0.93;;;0.50;;
66575;SDS011;53428;47.686;16.584;2023-08-07T10:08:48;0.30;;;0.30;;
66575;SDS011;53428;47.686;16.584;2023-08-07T10:13:48;0.20;;;0.20;;
66575;SDS011;53428;47.686;16.584;2023-08-07T10:18:49;0.22;;;0.22;;
66575;SDS011;53428;47.686;16.584;2023-08-07T10:23:48;0.20;;;0.20;;
66575;SDS011;53428;47.686;16.584;2023-08-07T10:28:52;0.50;;;0.50;;
66575;SDS011;53428;47.686;16.584;2023-08-07T10:33:53;0.65;;;0.28;;
66575;SDS011;53428;47.686;16.584;2023-08-07T10:39:05;0.20;;;0.20;;
66575;SDS011;53428;47.686;16.584;2023-08-07T10:44:23;2.72;;;0.50;;
66575;SDS011;53428;47.686;16.584;2023-08-07T10:54:30;0.85;;;0.10;;
66575;SDS011;53428;47.686;16.584;2023-08-07T10:59:44;0.63;;;0.40;;
66575;SDS011;53428;47.686;16.584;2023-08-07T11:04:55;2.90;;;0.40;;
66575;SDS011;53428;47.686;16.584;2023-08-07T11:09:55;0.52;;;0.30;;
66575;SDS011;53428;47.686;16.584;2023-08-07T11:14:56;3.53;;;0.45;;
66575;SDS011;53428;47.686;16.584;2023-08-07T11:19:56;0.32;;;0.32;;
66575;SDS011;53428;47.686;16.584;2023-08-07T11:24:55;0.30;;;0.30;;
66575;SDS011;53428;47.686;16.584;2023-08-07T11:29:55;0.57;;;0.40;;
66575;SDS011;53428;47.686;16.584;2023-08-07T11:34:54;0.65;;;0.63;;
66575;SDS011;53428;47.686;16.584;2023-08-07T11:39:58;0.40;;;0.40;;
66575;SDS011;53428;47.686;16.584;2023-08-07T11:45:01;0.50;;;0.50;;
66575;SDS011;53428;47.686;16.584;2023-08-07T11:50:01;0.45;;;0.45;;
66575;SDS011;53428;47.686;16.584;2023-08-07T11:55:02;5.15;;;0.60;;
66575;SDS011;53428;47.686;16.584;2023-08-07T12:00:02;1.33;;;0.70;;
66575;SDS011;53428;47.686;16.584;2023-08-07T12:05:08;0.65;;;0.43;;
66575;SDS011;53428;47.686;16.584;2023-08-07T12:10:10;0.50;;;0.43;;
66575;SDS011;53428;47.686;16.584;2023-08-07T12:15:09;0.50;;;0.40;;
66575;SDS011;53428;47.686;16.584;2023-08-07T12:20:09;1.55;;;0.50;;
66575;SDS011;53428;47.686;16.584;2023-08-07T12:25:10;0.70;;;0.68;;
66575;SDS011;53428;47.686;16.584;2023-08-07T12:30:10;0.50;;;0.35;;
66575;SDS011;53428;47.686;16.584;2023-08-07T12:35:12;0.77;;;0.45;;
66575;SDS011;53428;47.686;16.584;2023-08-07T12:40:11;0.35;;;0.35;;
66575;SDS011;53428;47.686;16.584;2023-08-07T12:45:11;0.28;;;0.28;;
66575;SDS011;53428;47.686;16.584;2023-08-07T12:50:10;3.53;;;0.93;;
66575;SDS011;53428;47.686;16.584;2023-08-07T12:55:10;0.73;;;0.47;;
66575;SDS011;53428;47.686;16.584;2023-08-07T13:00:11;1.80;;;0.50;;
66575;SDS011;53428;47.686;16.584;2023-08-07T13:05:14;0.30;;;0.30;;
66575;SDS011;53428;47.686;16.584;2023-08-07T13:10:16;0.40;;;0.40;;
66575;SDS011;53428;47.686;16.584;2023-08-07T13:15:16;1.40;;;0.40;;
66575;SDS011;53428;47.686;16.584;2023-08-07T13:20:16;0.40;;;0.40;;
66575;SDS011;53428;47.686;16.584;2023-08-07T13:25:16;0.47;;;0.47;;
66575;SDS011;53428;47.686;16.584;2023-08-07T13:30:15;0.30;;;0.30;;
66575;SDS011;53428;47.686;16.584;2023-08-07T13:35:14;0.40;;;0.13;;
66575;SDS011;53428;47.686;16.584;2023-08-07T13:40:14;0.57;;;0.40;;
66575;SDS011;53428;47.686;16.584;2023-08-07T13:45:13;0.50;;;0.50;;
66575;SDS011;53428;47.686;16.584;2023-08-07T13:50:12;0.20;;;0.20;;
66575;SDS011;53428;47.686;16.584;2023-08-07T13:55:12;0.52;;;0.45;;
66575;SDS011;53428;47.686;16.584;2023-08-07T14:00:12;0.52;;;0.52;;
66575;SDS011;53428;47.686;16.584;2023-08-07T14:05:12;1.70;;;0.60;;
66575;SDS011;53428;47.686;16.584;2023-08-07T14:10:12;0.60;;;0.47;;
66575;SDS011;53428;47.686;16.584;2023-08-07T14:15:13;0.93;;;0.50;;
66575;SDS011;53428;47.686;16.584;2023-08-07T14:20:13;1.88;;;0.90;;
66575;SDS011;53428;47.686;16.584;2023-08-07T14:25:12;2.90;;;0.82;;
66575;SDS011;53428;47.686;16.584;2023-08-07T14:30:11;1.10;;;0.60;;
66575;SDS011;53428;47.686;16.584;2023-08-07T14:35:11;0.50;;;0.50;;
66575;SDS011;53428;47.686;16.584;2023-08-07T14:40:10;0.82;;;0.80;;
66575;SDS011;53428;47.686;16.584;2023-08-07T14:45:09;1.65;;;1.10;;
66575;SDS011;53428;47.686;16.584;2023-08-07T14:50:09;0.73;;;0.70;;
66575;SDS011;53428;47.686;16.584;2023-08-07T14:55:08;1.45;;;0.93;;
66575;SDS011;53428;47.686;16.584;2023-08-07T15:00:08;0.63;;;0.63;;
66575;SDS011;53428;47.686;16.584;2023-08-07T15:05:07;0.80;;;0.80;;
66575;SDS011;53428;47.686;16.584;2023-08-07T15:10:07;0.85;;;0.70;;
66575;SDS011;53428;47.686;16.584;2023-08-07T15:15:07;1.35;;;0.90;;
66575;SDS011;53428;47.686;16.584;2023-08-07T15:20:07;5.32;;;0.95;;
66575;SDS011;53428;47.686;16.584;2023-08-07T15:25:07;1.10;;;0.85;;
66575;SDS011;53428;47.686;16.584;2023-08-07T15:30:07;0.77;;;0.77;;
66575;SDS011;53428;47.686;16.584;2023-08-07T15:35:09;3.20;;;1.02;;
66575;SDS011;53428;47.686;16.584;2023-08-07T15:40:09;1.02;;;0.90;;
66575;SDS011;53428;47.686;16.584;2023-08-07T15:45:09;0.70;;;0.70;;
66575;SDS011;53428;47.686;16.584;2023-08-07T15:50:08;3.55;;;0.88;;
66575;SDS011;53428;47.686;16.584;2023-08-07T15:55:08;1.42;;;0.98;;
66575;SDS011;53428;47.686;16.584;2023-08-07T16:00:08;0.85;;;0.80;;
66575;SDS011;53428;47.686;16.584;2023-08-07T16:05:08;2.45;;;1.40;;
66575;SDS011;53428;47.686;16.584;2023-08-07T16:10:08;0.88;;;0.85;;
66575;SDS011;53428;47.686;16.584;2023-08-07T16:15:08;1.75;;;0.90;;
66575;SDS011;53428;47.686;16.584;2023-08-07T16:20:07;1.55;;;1.02;;
66575;SDS011;53428;47.686;16.584;2023-08-07T16:25:07;5.50;;;1.05;;
66575;SDS011;53428;47.686;16.584;2023-08-07T16:30:07;3.60;;;1.10;;
66575;SDS011;53428;47.686;16.584;2023-08-07T16:35:06;1.10;;;0.90;;
66575;SDS011;53428;47.686;16.584;2023-08-07T16:40:06;1.20;;;1.10;;
66575;SDS011;53428;47.686;16.584;2023-08-07T16:45:07;3.55;;;0.88;;
66575;SDS011;53428;47.686;16.584;2023-08-07T16:50:07;1.48;;;0.93;;
66575;SDS011;53428;47.686;16.584;2023-08-07T16:55:07;6.07;;;1.00;;
66575;SDS011;53428;47.686;16.584;2023-08-07T17:00:07;1.88;;;1.27;;
66575;SDS011;53428;47.686;16.584;2023-08-07T17:05:09;2.13;;;1.27;;
66575;SDS011;53428;47.686;16.584;2023-08-07T17:10:08;1.17;;;1.02;;
66575;SDS011;53428;47.686;16.584;2023-08-07T17:15:11;5.57;;;1.20;;
66575;SDS011;53428;47.686;16.584;2023-08-07T17:20:11;2.92;;;1.10;;
66575;SDS011;53428;47.686;16.584;2023-08-07T17:25:11;2.38;;;1.15;;
66575;SDS011;53428;47.686;16.584;2023-08-07T17:30:10;2.58;;;1.50;;
66575;SDS011;53428;47.686;16.584;2023-08-07T17:35:10;4.30;;;1.20;;
66575;SDS011;53428;47.686;16.584;2023-08-07T17:40:10;1.25;;;1.05;;
66575;SDS011;53428;47.686;16.584;2023-08-07T17:45:12;1.77;;;1.20;;
66575;SDS011;53428;47.686;16.584;2023-08-07T17:50:12;4.88;;;1.60;;
66575;SDS011;53428;47.686;16.584;2023-08-07T17:55:12;3.20;;;1.10;;
66575;SDS011;53428;47.686;16.584;2023-08-07T18:00:13;2.22;;;1.23;;
66575;SDS011;53428;47.686;16.584;2023-08-07T18:05:13;1.45;;;1.27;;
66575;SDS011;53428;47.686;16.584;2023-08-07T18:10:12;1.23;;;0.98;;
66575;SDS011;53428;47.686;16.584;2023-08-07T18:15:12;3.00;;;1.33;;
66575;SDS011;53428;47.686;16.584;2023-08-07T18:20:12;2.03;;;1.33;;
66575;SDS011;53428;47.686;16.584;2023-08-07T18:25:11;4.03;;;1.42;;
66575;SDS011;53428;47.686;16.584;2023-08-07T18:30:11;1.98;;;1.20;;
66575;SDS011;53428;47.686;16.584;2023-08-07T18:35:12;2.75;;;1.77;;
66575;SDS011;53428;47.686;16.584;2023-08-07T18:40:13;2.20;;;2.00;;
66575;SDS011;53428;47.686;16.584;2023-08-07T18:45:14;2.78;;;1.48;;
66575;SDS011;53428;47.686;16.584;2023-08-07T18:50:14;1.58;;;1.42;;
66575;SDS011;53428;47.686;16.584;2023-08-07T18:55:17;3.40;;;1.83;;
66575;SDS011;53428;47.686;16.584;2023-08-07T19:00:17;5.03;;;2.10;;
66575;SDS011;53428;47.686;16.584;2023-08-07T19:05:17;4.22;;;1.92;;
66575;SDS011;53428;47.686;16.584;2023-08-07T19:10:16;3.00;;;2.25;;
66575;SDS011;53428;47.686;16.584;2023-08-07T19:15:16;4.35;;;2.55;;
66575;SDS011;53428;47.686;16.584;2023-08-07T19:20:16;3.83;;;2.10;;
66575;SDS011;53428;47.686;16.584;2023-08-07T19:25:16;6.38;;;2.17;;
66575;SDS011;53428;47.686;16.584;2023-08-07T19:30:20;4.60;;;2.17;;
66575;SDS011;53428;47.686;16.584;2023-08-07T19:35:19;5.05;;;2.25;;
66575;SDS011;53428;47.686;16.584;2023-08-07T19:40:20;3.40;;;2.17;;
66575;SDS011;53428;47.686;16.584;2023-08-07T19:45:23;1.98;;;1.65;;
66575;SDS011;53428;47.686;16.584;2023-08-07T19:50:23;13.13;;;3.30;;
66575;SDS011;53428;47.686;16.584;2023-08-07T19:55:25;4.32;;;2.45;;
66575;SDS011;53428;47.686;16.584;2023-08-07T20:00:25;8.07;;;2.28;;
66575;SDS011;53428;47.686;16.584;2023-08-07T20:05:24;2.65;;;1.70;;
66575;SDS011;53428;47.686;16.584;2023-08-07T20:10:24;1.58;;;1.20;;
66575;SDS011;53428;47.686;16.584;2023-08-07T20:15:24;1.67;;;1.58;;
66575;SDS011;53428;47.686;16.584;2023-08-07T20:20:23;3.85;;;1.10;;
66575;SDS011;53428;47.686;16.584;2023-08-07T20:25:23;2.88;;;0.98;;
66575;SDS011;53428;47.686;16.584;2023-08-07T20:30:24;1.25;;;1.00;;
66575;SDS011;53428;47.686;16.584;2023-08-07T20:35:24;1.92;;;0.95;;
66575;SDS011;53428;47.686;16.584;2023-08-07T20:40:24;1.48;;;0.85;;
66575;SDS011;53428;47.686;16.584;2023-08-07T20:45:32;1.15;;;0.73;;
66575;SDS011;53428;47.686;16.584;2023-08-07T20:50:32;0.93;;;0.93;;
66575;SDS011;53428;47.686;16.584;2023-08-07T20:55:31;1.17;;;1.08;;
66575;SDS011;53428;47.686;16.584;2023-08-07T21:00:31;1.00;;;0.85;;
66575;SDS011;53428;47.686;16.584;2023-08-07T21:05:30;0.60;;;0.60;;
66575;SDS011;53428;47.686;16.584;2023-08-07T21:10:29;0.80;;;0.80;;
66575;SDS011;53428;47.686;16.584;2023-08-07T21:15:29;0.93;;;0.70;;
66575;SDS011;53428;47.686;16.584;2023-08-07T21:20:28;0.73;;;0.60;;
66575;SDS011;53428;47.686;16.584;2023-08-07T21:25:28;1.17;;;0.45;;
66575;SDS011;53428;47.686;16.584;2023-08-07T21:30:27;0.95;;;0.82;;
66575;SDS011;53428;47.686;16.584;2023-08-07T21:35:26;1.08;;;0.68;;
66575;SDS011;53428;47.686;16.584;2023-08-07T21:40:26;1.33;;;0.55;;
66575;SDS011;53428;47.686;16.584;2023-08-07T21:45:25;0.30;;;0.30;;
66575;SDS011;53428;47.686;16.584;2023-08-07T21:50:25;2.22;;;0.70;;
66575;SDS011;53428;47.686;16.584;2023-08-07T21:55:24;0.57;;;0.57;;
66575;SDS011;53428;47.686;16.584;2023-08-07T22:00:23;0.57;;;0.57;;
66575;SDS011;53428;47.686;16.584;2023-08-07T22:05:23;1.55;;;0.73;;
66575;SDS011;53428;47.686;16.584;2023-08-07T22:10:22;0.63;;;0.63;;
66575;SDS011;53428;47.686;16.584;2023-08-07T22:15:22;0.68;;;0.68;;
66575;SDS011;53428;47.686;16.584;2023-08-07T22:20:21;0.68;;;0.68;;
66575;SDS011;53428;47.686;16.584;2023-08-07T22:25:21;0.70;;;0.70;;
66575;SDS011;53428;47.686;16.584;2023-08-07T22:30:20;0.70;;;0.70;;
66575;SDS011;53428;47.686;16.584;2023-08-07T22:35:20;0.63;;;0.50;;
66575;SDS011;53428;47.686;16.584;2023-08-07T22:40:20;0.85;;;0.70;;
66575;SDS011;53428;47.686;16.584;2023-08-07T22:45:19;2.08;;;0.68;;
66575;SDS011;53428;47.686;16.584;2023-08-07T22:50:19;1.17;;;1.08;;
66575;SDS011;53428;47.686;16.584;2023-08-07T22:55:18;1.13;;;0.80;;
66575;SDS011;53428;47.686;16.584;2023-08-07T23:00:17;1.42;;;0.90;;
66575;SDS011;53428;47.686;16.584;2023-08-07T23:05:17;2.00;;;0.90;;
66575;SDS011;53428;47.686;16.584;2023-08-07T23:10:17;1.25;;;0.82;;
66575;SDS011;53428;47.686;16.584;2023-08-07T23:15:16;1.50;;;0.88;;
66575;SDS011;53428;47.686;16.584;2023-08-07T23:20:16;0.85;;;0.85;;
66575;SDS011;53428;47.686;16.584;2023-08-07T23:25:15;1.20;;;0.90;;
66575;SDS011;53428;47.686;16.584;2023-08-07T23:30:14;1.85;;;1.08;;
66575;SDS011;53428;47.686;16.584;2023-08-07T23:35:14;1.30;;;1.20;;
66575;SDS011;53428;47.686;16.584;2023-08-07T23:40:13;5.15;;;1.83;;
66575;SDS011;53428;47.686;16.584;2023-08-07T23:45:13;2.38;;;0.93;;
66575;SDS011;53428;47.686;16.584;2023-08-07T23:50:12;1.25;;;1.08;;
66575;SDS011;53428;47.686;16.584;2023-08-07T23:55:12;1.77;;;1.13;;
